sensor_id;sensor_type;location;lat;lon;timestamp;P1;durP1;ratioP1;P2;durP2;ratioP2
7985;SDS011;4038;42.612;23.066;2023-06-22T00:00:29;31.00;;;28.40;;
7985;SDS011;4038;42.612;23.066;2023-06-22T00:02:54;30.65;;;28.35;;
7985;SDS011;4038;42.612;23.066;2023-06-22T00:05:19;52.80;;;33.80;;
7985;SDS011;4038;42.612;23.066;2023-06-22T00:07:44;49.97;;;34.50;;
7985;SDS011;4038;42.612;23.066;2023-06-22T00:10:10;47.95;;;42.55;;
7985;SDS011;4038;42.612;23.066;2023-06-22T00:12:35;42.28;;;37.97;;
7985;SDS011;4038;42.612;23.066;2023-06-22T00:15:00;35.38;;;31.95;;
7985;SDS011;4038;42.612;23.066;2023-06-22T00:17:25;33.10;;;30.08;;
7985;SDS011;4038;42.612;23.066;2023-06-22T00:19:51;32.95;;;30.05;;
7985;SDS011;4038;42.612;23.066;2023-06-22T00:22:18;34.92;;;31.75;;
7985;SDS011;4038;42.612;23.066;2023-06-22T00:24:46;37.08;;;33.45;;
7985;SDS011;4038;42.612;23.066;2023-06-22T00:27:11;36.88;;;33.15;;
7985;SDS011;4038;42.612;23.066;2023-06-22T00:29:37;36.63;;;33.20;;
7985;SDS011;4038;42.612;23.066;2023-06-22T00:32:02;35.67;;;32.13;;
7985;SDS011;4038;42.612;23.066;2023-06-22T00:34:28;34.42;;;31.20;;
7985;SDS011;4038;42.612;23.066;2023-06-22T00:36:53;31.92;;;28.77;;
7985;SDS011;4038;42.612;23.066;2023-06-22T00:39:18;33.28;;;29.98;;
7985;SDS011;4038;42.612;23.066;2023-06-22T00:41:43;35.25;;;32.05;;
7985;SDS011;4038;42.612;23.066;2023-06-22T00:44:09;36.20;;;32.55;;
7985;SDS011;4038;42.612;23.066;2023-06-22T00:46:34;35.55;;;32.25;;
7985;SDS011;4038;42.612;23.066;2023-06-22T00:48:59;34.30;;;31.10;;
7985;SDS011;4038;42.612;23.066;2023-06-22T00:51:24;34.70;;;31.42;;
7985;SDS011;4038;42.612;23.066;2023-06-22T00:53:50;35.22;;;31.92;;
7985;SDS011;4038;42.612;23.066;2023-06-22T00:56:16;36.60;;;32.75;;
7985;SDS011;4038;42.612;23.066;2023-06-22T00:58:44;34.13;;;30.92;;
7985;SDS011;4038;42.612;23.066;2023-06-22T01:01:09;33.30;;;30.30;;
7985;SDS011;4038;42.612;23.066;2023-06-22T01:03:35;36.13;;;32.45;;
7985;SDS011;4038;42.612;23.066;2023-06-22T01:06:07;35.03;;;31.65;;
7985;SDS011;4038;42.612;23.066;2023-06-22T01:09:19;31.48;;;28.70;;
7985;SDS011;4038;42.612;23.066;2023-06-22T01:11:32;30.75;;;28.05;;
7985;SDS011;4038;42.612;23.066;2023-06-22T01:14:03;30.58;;;28.05;;
7985;SDS011;4038;42.612;23.066;2023-06-22T01:16:31;30.17;;;27.67;;
7985;SDS011;4038;42.612;23.066;2023-06-22T01:18:57;28.77;;;26.55;;
7985;SDS011;4038;42.612;23.066;2023-06-22T01:21:25;30.33;;;27.83;;
7985;SDS011;4038;42.612;23.066;2023-06-22T01:28:59;29.88;;;27.58;;
7985;SDS011;4038;42.612;23.066;2023-06-22T01:31:26;30.20;;;27.90;;
7985;SDS011;4038;42.612;23.066;2023-06-22T01:33:57;29.08;;;26.88;;
7985;SDS011;4038;42.612;23.066;2023-06-22T01:36:23;29.45;;;27.25;;
7985;SDS011;4038;42.612;23.066;2023-06-22T01:38:49;29.48;;;27.23;;
7985;SDS011;4038;42.612;23.066;2023-06-22T01:41:15;29.77;;;27.58;;
7985;SDS011;4038;42.612;23.066;2023-06-22T01:43:41;29.67;;;27.48;;
7985;SDS011;4038;42.612;23.066;2023-06-22T01:46:06;28.92;;;26.58;;
7985;SDS011;4038;42.612;23.066;2023-06-22T01:48:31;28.40;;;26.40;;
7985;SDS011;4038;42.612;23.066;2023-06-22T01:50:57;28.92;;;26.83;;
7985;SDS011;4038;42.612;23.066;2023-06-22T01:53:22;29.67;;;27.23;;
7985;SDS011;4038;42.612;23.066;2023-06-22T01:55:48;30.02;;;27.83;;
7985;SDS011;4038;42.612;23.066;2023-06-22T01:58:13;28.45;;;26.35;;
7985;SDS011;4038;42.612;23.066;2023-06-22T02:00:39;28.63;;;26.52;;
7985;SDS011;4038;42.612;23.066;2023-06-22T02:03:09;28.30;;;26.20;;
7985;SDS011;4038;42.612;23.066;2023-06-22T02:05:36;29.63;;;27.33;;
7985;SDS011;4038;42.612;23.066;2023-06-22T02:08:09;28.42;;;26.25;;
7985;SDS011;4038;42.612;23.066;2023-06-22T02:10:36;32.25;;;29.38;;
7985;SDS011;4038;42.612;23.066;2023-06-22T02:13:04;34.78;;;31.63;;
7985;SDS011;4038;42.612;23.066;2023-06-22T02:15:29;30.02;;;27.83;;
7985;SDS011;4038;42.612;23.066;2023-06-22T02:17:55;29.83;;;27.60;;
7985;SDS011;4038;42.612;23.066;2023-06-22T02:20:20;30.13;;;27.90;;
7985;SDS011;4038;42.612;23.066;2023-06-22T02:22:45;30.02;;;27.60;;
7985;SDS011;4038;42.612;23.066;2023-06-22T02:25:11;31.02;;;28.48;;
7985;SDS011;4038;42.612;23.066;2023-06-22T02:27:36;31.92;;;29.25;;
7985;SDS011;4038;42.612;23.066;2023-06-22T02:30:05;32.75;;;29.77;;
7985;SDS011;4038;42.612;23.066;2023-06-22T02:32:30;32.95;;;30.15;;
7985;SDS011;4038;42.612;23.066;2023-06-22T02:34:59;31.10;;;28.50;;
7985;SDS011;4038;42.612;23.066;2023-06-22T02:37:24;29.80;;;27.63;;
7985;SDS011;4038;42.612;23.066;2023-06-22T02:39:50;29.63;;;27.13;;
7985;SDS011;4038;42.612;23.066;2023-06-22T02:42:15;28.73;;;26.48;;
7985;SDS011;4038;42.612;23.066;2023-06-22T02:44:45;28.95;;;26.75;;
7985;SDS011;4038;42.612;23.066;2023-06-22T02:47:10;28.45;;;26.15;;
7985;SDS011;4038;42.612;23.066;2023-06-22T02:49:35;29.70;;;27.42;;
7985;SDS011;4038;42.612;23.066;2023-06-22T02:52:00;29.00;;;26.80;;
7985;SDS011;4038;42.612;23.066;2023-06-22T02:54:26;28.90;;;26.70;;
7985;SDS011;4038;42.612;23.066;2023-06-22T02:56:51;27.95;;;25.95;;
7985;SDS011;4038;42.612;23.066;2023-06-22T02:59:16;29.10;;;26.50;;
7985;SDS011;4038;42.612;23.066;2023-06-22T03:01:41;28.70;;;26.33;;
7985;SDS011;4038;42.612;23.066;2023-06-22T03:04:07;28.50;;;26.30;;
7985;SDS011;4038;42.612;23.066;2023-06-22T03:06:32;28.08;;;25.98;;
7985;SDS011;4038;42.612;23.066;2023-06-22T03:09:01;27.35;;;25.30;;
7985;SDS011;4038;42.612;23.066;2023-06-22T03:11:28;28.27;;;26.02;;
7985;SDS011;4038;42.612;23.066;2023-06-22T03:13:54;29.42;;;27.10;;
7985;SDS011;4038;42.612;23.066;2023-06-22T03:16:19;28.55;;;26.20;;
7985;SDS011;4038;42.612;23.066;2023-06-22T03:18:44;28.20;;;26.13;;
7985;SDS011;4038;42.612;23.066;2023-06-22T03:21:10;28.92;;;26.52;;
7985;SDS011;4038;42.612;23.066;2023-06-22T03:23:36;28.45;;;26.25;;
7985;SDS011;4038;42.612;23.066;2023-06-22T03:26:02;31.08;;;28.55;;
7985;SDS011;4038;42.612;23.066;2023-06-22T03:28:27;30.02;;;27.63;;
7985;SDS011;4038;42.612;23.066;2023-06-22T03:30:52;30.75;;;28.35;;
7985;SDS011;4038;42.612;23.066;2023-06-22T03:33:17;28.77;;;26.48;;
7985;SDS011;4038;42.612;23.066;2023-06-22T03:35:43;29.27;;;27.17;;
7985;SDS011;4038;42.612;23.066;2023-06-22T03:38:08;29.05;;;26.85;;
7985;SDS011;4038;42.612;23.066;2023-06-22T03:40:33;29.58;;;27.30;;
7985;SDS011;4038;42.612;23.066;2023-06-22T03:42:58;31.23;;;28.80;;
7985;SDS011;4038;42.612;23.066;2023-06-22T03:45:24;30.58;;;28.13;;
7985;SDS011;4038;42.612;23.066;2023-06-22T03:47:49;30.10;;;27.70;;
7985;SDS011;4038;42.612;23.066;2023-06-22T03:50:14;30.77;;;28.40;;
7985;SDS011;4038;42.612;23.066;2023-06-22T03:52:39;31.10;;;28.60;;
7985;SDS011;4038;42.612;23.066;2023-06-22T03:55:05;30.33;;;27.80;;
7985;SDS011;4038;42.612;23.066;2023-06-22T03:57:31;31.45;;;28.65;;
7985;SDS011;4038;42.612;23.066;2023-06-22T03:59:56;30.15;;;27.65;;
7985;SDS011;4038;42.612;23.066;2023-06-22T04:02:22;29.88;;;27.20;;
7985;SDS011;4038;42.612;23.066;2023-06-22T04:04:47;28.77;;;26.42;;
7985;SDS011;4038;42.612;23.066;2023-06-22T04:07:12;29.98;;;27.58;;
7985;SDS011;4038;42.612;23.066;2023-06-22T04:09:37;30.75;;;28.35;;
7985;SDS011;4038;42.612;23.066;2023-06-22T04:12:03;29.48;;;27.17;;
7985;SDS011;4038;42.612;23.066;2023-06-22T04:14:28;30.65;;;28.15;;
7985;SDS011;4038;42.612;23.066;2023-06-22T04:16:53;30.75;;;28.25;;
7985;SDS011;4038;42.612;23.066;2023-06-22T04:19:18;29.48;;;27.27;;
7985;SDS011;4038;42.612;23.066;2023-06-22T04:21:44;31.02;;;28.63;;
7985;SDS011;4038;42.612;23.066;2023-06-22T04:24:09;29.67;;;27.48;;
7985;SDS011;4038;42.612;23.066;2023-06-22T04:26:35;29.42;;;27.20;;
7985;SDS011;4038;42.612;23.066;2023-06-22T04:29:05;30.20;;;27.70;;
7985;SDS011;4038;42.612;23.066;2023-06-22T04:31:33;31.23;;;28.38;;
7985;SDS011;4038;42.612;23.066;2023-06-22T04:34:01;29.52;;;27.33;;
7985;SDS011;4038;42.612;23.066;2023-06-22T04:36:32;45.83;;;30.65;;
7985;SDS011;4038;42.612;23.066;2023-06-22T04:39:02;57.88;;;32.47;;
7985;SDS011;4038;42.612;23.066;2023-06-22T04:41:27;31.10;;;28.45;;
7985;SDS011;4038;42.612;23.066;2023-06-22T04:43:53;31.48;;;28.58;;
7985;SDS011;4038;42.612;23.066;2023-06-22T04:46:24;31.48;;;28.55;;
7985;SDS011;4038;42.612;23.066;2023-06-22T04:48:50;30.33;;;27.70;;
7985;SDS011;4038;42.612;23.066;2023-06-22T04:51:15;30.58;;;27.90;;
7985;SDS011;4038;42.612;23.066;2023-06-22T04:53:40;30.38;;;27.95;;
7985;SDS011;4038;42.612;23.066;2023-06-22T04:56:06;31.63;;;29.05;;
7985;SDS011;4038;42.612;23.066;2023-06-22T04:58:31;30.65;;;28.15;;
7985;SDS011;4038;42.612;23.066;2023-06-22T05:00:57;30.25;;;27.85;;
7985;SDS011;4038;42.612;23.066;2023-06-22T05:03:24;29.77;;;27.27;;
7985;SDS011;4038;42.612;23.066;2023-06-22T05:05:50;29.33;;;27.02;;
7985;SDS011;4038;42.612;23.066;2023-06-22T05:08:17;29.00;;;26.67;;
7985;SDS011;4038;42.612;23.066;2023-06-22T05:10:42;28.02;;;26.02;;
7985;SDS011;4038;42.612;23.066;2023-06-22T05:13:08;28.90;;;26.67;;
7985;SDS011;4038;42.612;23.066;2023-06-22T05:15:33;29.35;;;26.65;;
7985;SDS011;4038;42.612;23.066;2023-06-22T05:18:02;32.70;;;29.42;;
7985;SDS011;4038;42.612;23.066;2023-06-22T05:20:30;31.23;;;28.13;;
7985;SDS011;4038;42.612;23.066;2023-06-22T05:22:55;50.38;;;31.83;;
7985;SDS011;4038;42.612;23.066;2023-06-22T05:25:20;33.63;;;30.63;;
7985;SDS011;4038;42.612;23.066;2023-06-22T05:27:46;41.55;;;31.50;;
7985;SDS011;4038;42.612;23.066;2023-06-22T05:30:11;38.60;;;30.20;;
7985;SDS011;4038;42.612;23.066;2023-06-22T05:32:36;35.50;;;29.70;;
7985;SDS011;4038;42.612;23.066;2023-06-22T05:35:02;30.85;;;28.20;;
7985;SDS011;4038;42.612;23.066;2023-06-22T05:37:28;32.80;;;29.20;;
7985;SDS011;4038;42.612;23.066;2023-06-22T05:39:53;35.70;;;28.65;;
7985;SDS011;4038;42.612;23.066;2023-06-22T05:42:20;31.88;;;28.60;;
7985;SDS011;4038;42.612;23.066;2023-06-22T05:44:45;31.83;;;29.02;;
7985;SDS011;4038;42.612;23.066;2023-06-22T05:47:11;40.83;;;30.88;;
7985;SDS011;4038;42.612;23.066;2023-06-22T05:49:36;38.20;;;31.13;;
7985;SDS011;4038;42.612;23.066;2023-06-22T05:52:02;45.80;;;31.38;;
7985;SDS011;4038;42.612;23.066;2023-06-22T05:54:27;47.92;;;33.92;;
7985;SDS011;4038;42.612;23.066;2023-06-22T05:56:53;43.13;;;33.17;;
7985;SDS011;4038;42.612;23.066;2023-06-22T05:59:18;45.75;;;33.58;;
7985;SDS011;4038;42.612;23.066;2023-06-22T06:01:43;51.08;;;34.88;;
7985;SDS011;4038;42.612;23.066;2023-06-22T06:04:09;63.67;;;35.15;;
7985;SDS011;4038;42.612;23.066;2023-06-22T06:06:34;53.03;;;35.75;;
7985;SDS011;4038;42.612;23.066;2023-06-22T06:09:02;53.25;;;33.65;;
7985;SDS011;4038;42.612;23.066;2023-06-22T06:11:28;39.25;;;32.70;;
7985;SDS011;4038;42.612;23.066;2023-06-22T06:13:53;53.22;;;33.35;;
7985;SDS011;4038;42.612;23.066;2023-06-22T06:16:18;46.65;;;34.13;;
7985;SDS011;4038;42.612;23.066;2023-06-22T06:18:43;45.20;;;34.00;;
7985;SDS011;4038;42.612;23.066;2023-06-22T06:21:09;37.80;;;33.83;;
7985;SDS011;4038;42.612;23.066;2023-06-22T06:23:34;43.33;;;33.45;;
7985;SDS011;4038;42.612;23.066;2023-06-22T06:25:59;35.88;;;32.40;;
7985;SDS011;4038;42.612;23.066;2023-06-22T06:28:26;37.63;;;33.60;;
7985;SDS011;4038;42.612;23.066;2023-06-22T06:30:51;37.80;;;34.08;;
7985;SDS011;4038;42.612;23.066;2023-06-22T06:33:17;35.42;;;31.85;;
7985;SDS011;4038;42.612;23.066;2023-06-22T06:35:42;34.50;;;30.95;;
7985;SDS011;4038;42.612;23.066;2023-06-22T06:38:07;37.60;;;31.38;;
7985;SDS011;4038;42.612;23.066;2023-06-22T06:40:32;35.70;;;31.58;;
7985;SDS011;4038;42.612;23.066;2023-06-22T06:42:58;35.05;;;31.35;;
7985;SDS011;4038;42.612;23.066;2023-06-22T06:45:23;35.25;;;31.30;;
7985;SDS011;4038;42.612;23.066;2023-06-22T06:47:49;32.63;;;29.67;;
7985;SDS011;4038;42.612;23.066;2023-06-22T06:50:15;34.20;;;30.67;;
7985;SDS011;4038;42.612;23.066;2023-06-22T06:52:40;34.72;;;31.20;;
7985;SDS011;4038;42.612;23.066;2023-06-22T06:55:06;34.65;;;31.35;;
7985;SDS011;4038;42.612;23.066;2023-06-22T06:57:39;37.53;;;31.90;;
7985;SDS011;4038;42.612;23.066;2023-06-22T07:00:05;34.80;;;31.25;;
7985;SDS011;4038;42.612;23.066;2023-06-22T07:02:34;33.78;;;30.63;;
7985;SDS011;4038;42.612;23.066;2023-06-22T07:04:59;34.67;;;31.30;;
7985;SDS011;4038;42.612;23.066;2023-06-22T07:07:25;35.20;;;31.88;;
7985;SDS011;4038;42.612;23.066;2023-06-22T07:09:50;34.28;;;31.15;;
7985;SDS011;4038;42.612;23.066;2023-06-22T07:12:15;34.45;;;31.55;;
7985;SDS011;4038;42.612;23.066;2023-06-22T07:14:41;36.97;;;31.42;;
7985;SDS011;4038;42.612;23.066;2023-06-22T07:17:06;35.47;;;31.70;;
7985;SDS011;4038;42.612;23.066;2023-06-22T07:19:32;32.85;;;30.27;;
7985;SDS011;4038;42.612;23.066;2023-06-22T07:21:58;34.70;;;31.98;;
7985;SDS011;4038;42.612;23.066;2023-06-22T07:24:23;35.67;;;32.58;;
7985;SDS011;4038;42.612;23.066;2023-06-22T07:26:49;34.15;;;31.30;;
7985;SDS011;4038;42.612;23.066;2023-06-22T07:29:18;34.58;;;31.67;;
7985;SDS011;4038;42.612;23.066;2023-06-22T07:31:45;33.78;;;31.17;;
7985;SDS011;4038;42.612;23.066;2023-06-22T07:34:10;35.03;;;32.25;;
7985;SDS011;4038;42.612;23.066;2023-06-22T07:36:35;34.15;;;31.23;;
7985;SDS011;4038;42.612;23.066;2023-06-22T07:39:02;34.33;;;31.58;;
7985;SDS011;4038;42.612;23.066;2023-06-22T07:41:28;37.20;;;33.88;;
7985;SDS011;4038;42.612;23.066;2023-06-22T07:43:53;34.92;;;31.58;;
7985;SDS011;4038;42.612;23.066;2023-06-22T07:46:18;36.95;;;33.17;;
7985;SDS011;4038;42.612;23.066;2023-06-22T07:48:43;34.03;;;31.17;;
7985;SDS011;4038;42.612;23.066;2023-06-22T07:51:09;36.15;;;32.85;;
7985;SDS011;4038;42.612;23.066;2023-06-22T07:53:37;38.42;;;30.63;;
7985;SDS011;4038;42.612;23.066;2023-06-22T07:56:03;35.10;;;31.50;;
7985;SDS011;4038;42.612;23.066;2023-06-22T07:58:32;35.35;;;31.55;;
7985;SDS011;4038;42.612;23.066;2023-06-22T08:00:57;34.55;;;29.98;;
7985;SDS011;4038;42.612;23.066;2023-06-22T08:03:22;31.98;;;28.92;;
7985;SDS011;4038;42.612;23.066;2023-06-22T08:05:47;30.30;;;27.67;;
7985;SDS011;4038;42.612;23.066;2023-06-22T08:08:13;31.42;;;28.70;;
7985;SDS011;4038;42.612;23.066;2023-06-22T08:10:39;32.13;;;29.17;;
7985;SDS011;4038;42.612;23.066;2023-06-22T08:13:06;29.67;;;27.17;;
7985;SDS011;4038;42.612;23.066;2023-06-22T08:15:33;27.60;;;25.60;;
7985;SDS011;4038;42.612;23.066;2023-06-22T08:17:59;27.92;;;25.92;;
7985;SDS011;4038;42.612;23.066;2023-06-22T08:20:25;28.95;;;26.77;;
7985;SDS011;4038;42.612;23.066;2023-06-22T08:22:50;29.20;;;27.10;;
7985;SDS011;4038;42.612;23.066;2023-06-22T08:25:16;29.92;;;27.63;;
7985;SDS011;4038;42.612;23.066;2023-06-22T08:27:44;28.85;;;26.63;;
7985;SDS011;4038;42.612;23.066;2023-06-22T08:30:09;30.15;;;27.70;;
7985;SDS011;4038;42.612;23.066;2023-06-22T08:32:35;29.13;;;26.98;;
7985;SDS011;4038;42.612;23.066;2023-06-22T08:35:01;29.40;;;27.23;;
7985;SDS011;4038;42.612;23.066;2023-06-22T08:37:26;28.60;;;26.60;;
7985;SDS011;4038;42.612;23.066;2023-06-22T08:40:00;28.98;;;26.77;;
7985;SDS011;4038;42.612;23.066;2023-06-22T08:42:33;29.40;;;27.20;;
7985;SDS011;4038;42.612;23.066;2023-06-22T08:44:58;30.45;;;28.20;;
7985;SDS011;4038;42.612;23.066;2023-06-22T08:47:24;31.48;;;28.92;;
7985;SDS011;4038;42.612;23.066;2023-06-22T08:49:49;32.05;;;29.42;;
7985;SDS011;4038;42.612;23.066;2023-06-22T08:52:14;31.20;;;28.48;;
7985;SDS011;4038;42.612;23.066;2023-06-22T08:54:40;30.88;;;28.25;;
7985;SDS011;4038;42.612;23.066;2023-06-22T08:57:05;31.15;;;28.40;;
7985;SDS011;4038;42.612;23.066;2023-06-22T08:59:31;30.98;;;28.40;;
7985;SDS011;4038;42.612;23.066;2023-06-22T09:01:56;30.25;;;27.55;;
7985;SDS011;4038;42.612;23.066;2023-06-22T09:04:21;31.65;;;28.92;;
7985;SDS011;4038;42.612;23.066;2023-06-22T09:06:47;31.65;;;29.10;;
7985;SDS011;4038;42.612;23.066;2023-06-22T09:09:13;32.72;;;30.30;;
7985;SDS011;4038;42.612;23.066;2023-06-22T09:11:39;31.05;;;28.73;;
7985;SDS011;4038;42.612;23.066;2023-06-22T09:14:04;32.35;;;29.35;;
7985;SDS011;4038;42.612;23.066;2023-06-22T09:16:30;30.83;;;28.50;;
7985;SDS011;4038;42.612;23.066;2023-06-22T09:18:55;31.02;;;28.55;;
7985;SDS011;4038;42.612;23.066;2023-06-22T09:21:20;29.67;;;27.58;;
7985;SDS011;4038;42.612;23.066;2023-06-22T09:29:51;30.90;;;28.65;;
7985;SDS011;4038;42.612;23.066;2023-06-22T09:32:35;31.02;;;28.73;;
7985;SDS011;4038;42.612;23.066;2023-06-22T09:35:04;30.05;;;27.95;;
7985;SDS011;4038;42.612;23.066;2023-06-22T09:37:30;31.98;;;29.77;;
7985;SDS011;4038;42.612;23.066;2023-06-22T09:39:55;31.05;;;29.05;;
7985;SDS011;4038;42.612;23.066;2023-06-22T09:42:21;30.90;;;28.80;;
7985;SDS011;4038;42.612;23.066;2023-06-22T09:44:46;30.23;;;28.23;;
7985;SDS011;4038;42.612;23.066;2023-06-22T09:47:11;30.05;;;27.67;;
7985;SDS011;4038;42.612;23.066;2023-06-22T09:49:36;31.58;;;29.45;;
7985;SDS011;4038;42.612;23.066;2023-06-22T09:52:02;32.45;;;30.17;;
7985;SDS011;4038;42.612;23.066;2023-06-22T09:54:27;31.55;;;29.45;;
7985;SDS011;4038;42.612;23.066;2023-06-22T09:56:52;30.88;;;28.55;;
7985;SDS011;4038;42.612;23.066;2023-06-22T09:59:18;32.05;;;29.60;;
7985;SDS011;4038;42.612;23.066;2023-06-22T10:01:43;30.42;;;28.42;;
7985;SDS011;4038;42.612;23.066;2023-06-22T10:04:08;30.98;;;28.88;;
7985;SDS011;4038;42.612;23.066;2023-06-22T10:06:33;30.95;;;28.85;;
7985;SDS011;4038;42.612;23.066;2023-06-22T10:08:59;31.33;;;28.83;;
7985;SDS011;4038;42.612;23.066;2023-06-22T10:11:24;30.63;;;28.33;;
7985;SDS011;4038;42.612;23.066;2023-06-22T10:13:54;30.38;;;28.45;;
7985;SDS011;4038;42.612;23.066;2023-06-22T10:16:19;30.50;;;28.60;;
7985;SDS011;4038;42.612;23.066;2023-06-22T10:18:44;30.75;;;28.70;;
7985;SDS011;4038;42.612;23.066;2023-06-22T10:21:10;29.52;;;27.63;;
7985;SDS011;4038;42.612;23.066;2023-06-22T10:23:35;29.35;;;27.27;;
7985;SDS011;4038;42.612;23.066;2023-06-22T10:26:00;29.73;;;27.73;;
7985;SDS011;4038;42.612;23.066;2023-06-22T10:28:25;31.33;;;28.95;;
7985;SDS011;4038;42.612;23.066;2023-06-22T10:30:51;30.17;;;28.25;;
7985;SDS011;4038;42.612;23.066;2023-06-22T10:33:16;30.75;;;28.75;;
7985;SDS011;4038;42.612;23.066;2023-06-22T10:35:41;30.40;;;28.40;;
7985;SDS011;4038;42.612;23.066;2023-06-22T10:38:08;31.33;;;29.13;;
7985;SDS011;4038;42.612;23.066;2023-06-22T10:40:33;29.73;;;27.73;;
7985;SDS011;4038;42.612;23.066;2023-06-22T10:42:59;29.63;;;27.52;;
7985;SDS011;4038;42.612;23.066;2023-06-22T10:45:24;29.83;;;27.83;;
7985;SDS011;4038;42.612;23.066;2023-06-22T10:47:49;30.27;;;28.27;;
7985;SDS011;4038;42.612;23.066;2023-06-22T10:50:15;29.52;;;27.52;;
7985;SDS011;4038;42.612;23.066;2023-06-22T10:52:40;29.98;;;28.08;;
7985;SDS011;4038;42.612;23.066;2023-06-22T10:55:09;29.90;;;28.00;;
7985;SDS011;4038;42.612;23.066;2023-06-22T10:57:34;30.45;;;28.35;;
7985;SDS011;4038;42.612;23.066;2023-06-22T10:59:59;29.65;;;27.65;;
7985;SDS011;4038;42.612;23.066;2023-06-22T11:02:25;29.52;;;27.52;;
7985;SDS011;4038;42.612;23.066;2023-06-22T11:04:53;30.40;;;28.27;;
7985;SDS011;4038;42.612;23.066;2023-06-22T11:07:18;31.67;;;29.10;;
7985;SDS011;4038;42.612;23.066;2023-06-22T11:09:43;30.40;;;28.30;;
7985;SDS011;4038;42.612;23.066;2023-06-22T11:12:09;30.13;;;27.85;;
7985;SDS011;4038;42.612;23.066;2023-06-22T11:14:34;30.88;;;28.75;;
7985;SDS011;4038;42.612;23.066;2023-06-22T11:16:59;30.20;;;28.20;;
7985;SDS011;4038;42.612;23.066;2023-06-22T11:19:25;29.65;;;27.65;;
7985;SDS011;4038;42.612;23.066;2023-06-22T11:21:50;29.52;;;27.42;;
7985;SDS011;4038;42.612;23.066;2023-06-22T11:24:16;29.48;;;27.38;;
7985;SDS011;4038;42.612;23.066;2023-06-22T11:26:41;29.63;;;27.50;;
7985;SDS011;4038;42.612;23.066;2023-06-22T11:29:06;29.08;;;26.98;;
7985;SDS011;4038;42.612;23.066;2023-06-22T11:31:34;29.90;;;27.60;;
7985;SDS011;4038;42.612;23.066;2023-06-22T11:33:59;29.33;;;27.33;;
7985;SDS011;4038;42.612;23.066;2023-06-22T11:36:25;28.40;;;26.40;;
7985;SDS011;4038;42.612;23.066;2023-06-22T11:38:50;28.73;;;26.73;;
7985;SDS011;4038;42.612;23.066;2023-06-22T11:41:16;29.25;;;26.98;;
7985;SDS011;4038;42.612;23.066;2023-06-22T11:43:41;28.58;;;26.58;;
7985;SDS011;4038;42.612;23.066;2023-06-22T11:46:07;29.08;;;26.98;;
7985;SDS011;4038;42.612;23.066;2023-06-22T11:48:32;29.60;;;27.35;;
7985;SDS011;4038;42.612;23.066;2023-06-22T11:50:57;28.52;;;26.42;;
7985;SDS011;4038;42.612;23.066;2023-06-22T11:53:24;29.75;;;27.58;;
7985;SDS011;4038;42.612;23.066;2023-06-22T11:55:49;29.33;;;27.20;;
7985;SDS011;4038;42.612;23.066;2023-06-22T11:58:15;31.20;;;27.13;;
7985;SDS011;4038;42.612;23.066;2023-06-22T12:00:40;29.33;;;26.92;;
7985;SDS011;4038;42.612;23.066;2023-06-22T12:03:06;29.42;;;27.33;;
7985;SDS011;4038;42.612;23.066;2023-06-22T12:05:32;29.33;;;27.08;;
7985;SDS011;4038;42.612;23.066;2023-06-22T12:07:57;29.75;;;27.40;;
7985;SDS011;4038;42.612;23.066;2023-06-22T12:10:22;29.48;;;27.27;;
7985;SDS011;4038;42.612;23.066;2023-06-22T12:12:48;28.85;;;26.55;;
7985;SDS011;4038;42.612;23.066;2023-06-22T12:15:13;29.73;;;27.42;;
7985;SDS011;4038;42.612;23.066;2023-06-22T12:17:38;30.27;;;28.13;;
7985;SDS011;4038;42.612;23.066;2023-06-22T12:20:04;28.45;;;26.35;;
7985;SDS011;4038;42.612;23.066;2023-06-22T12:22:33;33.45;;;31.02;;
7985;SDS011;4038;42.612;23.066;2023-06-22T12:24:58;30.52;;;28.42;;
7985;SDS011;4038;42.612;23.066;2023-06-22T12:27:24;28.63;;;26.50;;
7985;SDS011;4038;42.612;23.066;2023-06-22T12:29:50;29.42;;;27.42;;
7985;SDS011;4038;42.612;23.066;2023-06-22T12:32:15;30.17;;;27.77;;
7985;SDS011;4038;42.612;23.066;2023-06-22T12:34:41;30.00;;;27.75;;
7985;SDS011;4038;42.612;23.066;2023-06-22T12:37:07;30.17;;;28.08;;
7985;SDS011;4038;42.612;23.066;2023-06-22T12:39:32;31.55;;;29.05;;
7985;SDS011;4038;42.612;23.066;2023-06-22T12:41:57;29.88;;;27.58;;
7985;SDS011;4038;42.612;23.066;2023-06-22T12:44:22;32.95;;;29.70;;
7985;SDS011;4038;42.612;23.066;2023-06-22T12:46:48;31.17;;;28.60;;
7985;SDS011;4038;42.612;23.066;2023-06-22T12:49:13;31.30;;;28.63;;
7985;SDS011;4038;42.612;23.066;2023-06-22T12:51:42;30.75;;;28.25;;
7985;SDS011;4038;42.612;23.066;2023-06-22T12:54:07;32.97;;;30.38;;
7985;SDS011;4038;42.612;23.066;2023-06-22T12:56:32;33.65;;;30.83;;
7985;SDS011;4038;42.612;23.066;2023-06-22T12:58:58;32.90;;;30.25;;
7985;SDS011;4038;42.612;23.066;2023-06-22T13:01:24;31.85;;;29.25;;
7985;SDS011;4038;42.612;23.066;2023-06-22T13:03:49;28.48;;;26.38;;
7985;SDS011;4038;42.612;23.066;2023-06-22T13:06:15;28.98;;;26.63;;
7985;SDS011;4038;42.612;23.066;2023-06-22T13:08:40;27.25;;;25.20;;
7985;SDS011;4038;42.612;23.066;2023-06-22T13:11:05;27.70;;;25.65;;
7985;SDS011;4038;42.612;23.066;2023-06-22T13:13:31;27.38;;;25.33;;
7985;SDS011;4038;42.612;23.066;2023-06-22T13:15:56;27.38;;;25.27;;
7985;SDS011;4038;42.612;23.066;2023-06-22T13:18:21;30.50;;;27.45;;
7985;SDS011;4038;42.612;23.066;2023-06-22T13:20:46;29.20;;;26.40;;
7985;SDS011;4038;42.612;23.066;2023-06-22T13:23:12;28.88;;;26.48;;
7985;SDS011;4038;42.612;23.066;2023-06-22T13:25:37;29.48;;;27.27;;
7985;SDS011;4038;42.612;23.066;2023-06-22T13:28:03;28.05;;;25.95;;
7985;SDS011;4038;42.612;23.066;2023-06-22T13:30:28;27.75;;;25.52;;
7985;SDS011;4038;42.612;23.066;2023-06-22T13:32:54;28.17;;;25.83;;
7985;SDS011;4038;42.612;23.066;2023-06-22T13:35:19;27.98;;;25.77;;
7985;SDS011;4038;42.612;23.066;2023-06-22T13:37:44;28.23;;;26.17;;
7985;SDS011;4038;42.612;23.066;2023-06-22T13:40:09;28.85;;;26.65;;
7985;SDS011;4038;42.612;23.066;2023-06-22T13:42:35;29.63;;;27.27;;
7985;SDS011;4038;42.612;23.066;2023-06-22T13:45:00;29.58;;;27.13;;
7985;SDS011;4038;42.612;23.066;2023-06-22T13:47:25;29.27;;;26.98;;
7985;SDS011;4038;42.612;23.066;2023-06-22T13:49:51;28.70;;;26.50;;
7985;SDS011;4038;42.612;23.066;2023-06-22T13:52:16;28.90;;;26.58;;
7985;SDS011;4038;42.612;23.066;2023-06-22T13:54:41;28.25;;;26.17;;
7985;SDS011;4038;42.612;23.066;2023-06-22T13:57:06;27.65;;;25.75;;
7985;SDS011;4038;42.612;23.066;2023-06-22T13:59:32;27.63;;;25.58;;
7985;SDS011;4038;42.612;23.066;2023-06-22T14:01:57;28.60;;;26.50;;
7985;SDS011;4038;42.612;23.066;2023-06-22T14:04:22;29.13;;;26.90;;
7985;SDS011;4038;42.612;23.066;2023-06-22T14:06:48;29.10;;;27.02;;
7985;SDS011;4038;42.612;23.066;2023-06-22T14:09:13;28.92;;;26.85;;
7985;SDS011;4038;42.612;23.066;2023-06-22T14:11:38;29.88;;;27.63;;
7985;SDS011;4038;42.612;23.066;2023-06-22T14:14:03;29.67;;;27.58;;
7985;SDS011;4038;42.612;23.066;2023-06-22T14:16:29;29.90;;;27.50;;
7985;SDS011;4038;42.612;23.066;2023-06-22T14:18:54;29.80;;;27.48;;
7985;SDS011;4038;42.612;23.066;2023-06-22T14:21:19;29.70;;;27.52;;
7985;SDS011;4038;42.612;23.066;2023-06-22T14:23:44;29.55;;;27.45;;
7985;SDS011;4038;42.612;23.066;2023-06-22T14:26:14;30.90;;;28.48;;
7985;SDS011;4038;42.612;23.066;2023-06-22T14:28:39;29.73;;;27.52;;
7985;SDS011;4038;42.612;23.066;2023-06-22T14:31:04;31.15;;;28.95;;
7985;SDS011;4038;42.612;23.066;2023-06-22T14:33:29;30.20;;;28.10;;
7985;SDS011;4038;42.612;23.066;2023-06-22T14:35:55;30.52;;;28.10;;